CGB2 weather

Bishell's Airport
Carstairs, Alberta, Canada

Public forecast

Using degrees Celsius for public forecast. Weather courtesy of forecast.io.

METAR (pilot weather report)

Closest report is Calgary International Airport, 28.2 nm (52.2 km) S. Retrieved 2019/05/24 05:00 UTC (29 minutes ago):

CYYC 240500Z 36015KT 15SM BKN110 12/05 A2986 RMK AC6 SLP119 DENSITY ALT 4200FT

TAF (pilot weather forecast)

Closest forecast is Calgary International Airport, 28.2 nm (52.2 km) S. Retrieved 2019/05/24 03:42 UTC (2 hours ago):

TAF TAF CYYC 240238Z 2403/2424 01012KT P6SM SCT070 BKN090 TEMPO 2403/2408 P6SM -SHRA PROB30 2403/2405 VRB15G25KT 5SM TSRA BKN070CB FM240800 34010KT P6SM SCT080 BKN120 FM241100 33008KT P6SM FEW015 BKN040 TEMPO 2411/2420 P6SM -SHRA BKN015 OVC040 FM242000 33012KT P6SM FEW020 BKN040 TEMPO 2420/2424 P6SM -SHRA PROB30 2420/2424 VRB15G25KT 5SM TSRA OVC020CB RMK NXT FCST BY 240600Z